createdAt,value
2019-03-23T00:00:38.360Z,25.30
2019-03-23T00:01:38.249Z,24.30
2019-03-23T00:02:38.277Z,23.80
2019-03-23T00:03:38.203Z,22.50
2019-03-23T00:04:38.207Z,25.50
2019-03-23T00:05:38.137Z,23.40
2019-03-23T00:06:38.228Z,24.10
2019-03-23T00:07:38.103Z,19.90
2019-03-23T00:08:38.133Z,26.40
2019-03-23T00:09:38.101Z,21.70
2019-03-23T00:10:39.063Z,24.10
2019-03-23T00:11:37.982Z,21.70
2019-03-23T00:13:37.975Z,23.20
2019-03-23T00:15:38.012Z,22.60
2019-03-23T00:59:18.001Z,28.80
2019-03-23T01:00:16.182Z,25.60
2019-03-23T01:01:16.157Z,27.40
2019-03-23T01:02:16.129Z,26.90
2019-03-23T01:03:16.115Z,31.30
2019-03-23T01:04:16.077Z,38.90
2019-03-23T01:05:16.126Z,35.50
2019-03-23T01:06:16.104Z,41.20
2019-03-23T01:07:15.993Z,34.50
2019-03-23T01:39:35.688Z,78.30
2019-03-23T01:40:36.283Z,72.40
2019-03-23T01:41:34.061Z,79.40
2019-03-23T01:42:35.068Z,77.20
2019-03-23T01:43:34.010Z,77.70
2019-03-23T01:44:34.053Z,77.90
2019-03-23T01:45:33.932Z,77.20
2019-03-23T01:46:33.965Z,82.70
2019-03-23T01:47:33.881Z,76.10
2019-03-23T01:48:33.900Z,74.20
2019-03-23T01:49:33.845Z,81.50
2019-03-23T01:50:33.906Z,79.50
2019-03-23T01:51:33.778Z,78.90
2019-03-23T01:52:33.804Z,81.20
2019-03-23T01:53:33.730Z,80.30
2019-03-23T01:54:33.742Z,80.00
2019-03-23T01:55:33.689Z,79.30
2019-03-23T01:56:33.750Z,78.20
2019-03-23T01:57:33.639Z,83.40
2019-03-23T01:58:33.697Z,83.30
2019-03-23T01:59:33.592Z,77.30
2019-03-23T02:00:33.567Z,89.70
2019-03-23T02:01:33.531Z,86.40
2019-03-23T02:02:33.587Z,88.00
2019-03-23T02:03:33.477Z,81.70
2019-03-23T02:04:33.535Z,92.50
2019-03-23T02:05:33.425Z,91.10
2019-03-23T02:06:33.432Z,92.60
2019-03-23T02:07:33.359Z,88.10
2019-03-23T02:08:33.344Z,87.70
2019-03-23T02:09:33.310Z,98.00
2019-03-23T02:10:33.366Z,89.50
2019-03-23T02:11:33.239Z,93.90
2019-03-23T02:12:33.277Z,92.80
2019-03-23T02:13:33.188Z,91.20
2019-03-23T02:14:33.278Z,93.00
2019-03-23T02:15:33.191Z,92.80
2019-03-23T02:16:33.193Z,96.70
2019-03-23T02:17:33.097Z,94.50
2019-03-23T02:18:33.102Z,91.50
2019-03-23T02:19:33.028Z,88.00
2019-03-23T02:20:33.115Z,99.30
2019-03-23T02:21:32.979Z,101.10
2019-03-23T02:22:33.023Z,89.90
2019-03-23T02:23:32.963Z,92.30
2019-03-23T02:24:33.046Z,98.20
2019-03-23T02:25:32.876Z,100.20
2019-03-23T02:26:32.924Z,98.00
2019-03-23T02:27:32.823Z,95.20
2019-03-23T02:28:32.825Z,102.60
2019-03-23T02:29:32.786Z,100.20
2019-03-23T02:30:32.842Z,106.10
2019-03-23T02:31:32.727Z,103.30
2019-03-23T02:32:32.759Z,95.80
2019-03-23T02:33:32.666Z,95.10
2019-03-23T02:34:32.675Z,94.50
2019-03-23T02:35:32.608Z,103.40
2019-03-23T02:36:32.689Z,99.30
2019-03-23T02:37:32.567Z,104.70
2019-03-23T02:38:32.596Z,100.60
2019-03-23T02:39:32.597Z,107.80
2019-03-23T02:40:32.499Z,104.20
2019-03-23T02:41:32.504Z,100.50
2019-03-23T02:42:32.518Z,100.40
2019-03-23T02:43:32.453Z,96.50
2019-03-23T02:44:32.522Z,101.40
2019-03-23T02:45:32.357Z,101.90
2019-03-23T02:46:32.407Z,97.10
2019-03-23T02:47:32.307Z,98.00
2019-03-23T02:48:32.386Z,102.30
2019-03-23T02:49:32.237Z,100.50
2019-03-23T02:50:32.270Z,101.30
2019-03-23T02:51:32.181Z,99.10
2019-03-23T02:52:32.174Z,105.80
2019-03-23T02:53:32.128Z,93.00
2019-03-23T02:54:32.187Z,104.50
2019-03-23T02:55:32.078Z,109.60
2019-03-23T02:56:32.115Z,100.10
2019-03-23T02:57:32.026Z,109.20
2019-03-23T02:58:32.114Z,106.60
2019-03-23T02:59:31.968Z,107.90
2019-03-23T03:00:32.025Z,100.30
2019-03-23T03:01:31.928Z,115.20
2019-03-23T03:02:31.936Z,113.80
2019-03-23T03:03:31.860Z,109.20
2019-03-23T03:04:31.952Z,111.60
2019-03-23T03:05:31.813Z,109.20
2019-03-23T03:06:31.861Z,118.30
2019-03-23T03:07:41.817Z,115.30
2019-03-23T03:08:31.758Z,122.60
2019-03-23T03:09:31.707Z,120.60
2019-03-23T03:10:31.777Z,121.00
2019-03-23T03:11:31.650Z,119.80
2019-03-23T03:12:31.688Z,123.30
2019-03-23T03:13:31.604Z,122.40
2019-03-23T03:14:31.602Z,126.10
2019-03-23T03:15:31.570Z,121.50
2019-03-23T03:16:31.620Z,123.50
2019-03-23T03:17:31.497Z,122.50
2019-03-23T03:18:31.530Z,125.70
2019-03-23T03:19:31.442Z,125.40
2019-03-23T03:20:31.433Z,117.80
2019-03-23T03:21:31.385Z,122.40
2019-03-23T03:22:31.446Z,129.20
2019-03-23T03:23:31.331Z,127.60
2019-03-23T03:24:31.360Z,130.70
2019-03-23T03:25:31.277Z,123.00
2019-03-23T03:26:31.278Z,133.80
2019-03-23T03:27:31.225Z,129.90
2019-03-23T03:28:31.295Z,126.30
2019-03-23T03:29:31.169Z,119.50
2019-03-23T03:30:31.243Z,122.60
2019-03-23T03:31:31.119Z,126.80
2019-03-23T03:32:32.132Z,115.30
2019-03-23T03:33:31.066Z,130.20
2019-03-23T03:34:31.123Z,121.30
2019-03-23T03:35:31.014Z,137.50
2019-03-23T03:36:31.055Z,130.10
2019-03-23T03:37:30.960Z,128.80
2019-03-23T03:38:30.942Z,125.00
2019-03-23T03:39:30.903Z,125.20
2019-03-23T03:40:30.966Z,126.20
2019-03-23T03:41:30.867Z,131.00
2019-03-23T03:42:30.868Z,130.40
2019-03-23T03:43:30.798Z,125.90
2019-03-23T03:44:30.784Z,123.10
2019-03-23T03:45:30.743Z,131.30
2019-03-23T03:46:30.801Z,135.30
2019-03-23T03:47:30.689Z,135.80
2019-03-23T03:48:30.722Z,122.60
2019-03-23T03:49:30.635Z,134.80
2019-03-23T03:50:30.623Z,127.90
2019-03-23T03:51:30.578Z,135.60
2019-03-23T03:52:30.634Z,134.20
2019-03-23T03:53:30.587Z,141.50
2019-03-23T03:54:30.547Z,137.70
2019-03-23T03:55:30.497Z,132.40
2019-03-23T03:56:30.560Z,139.00
2019-03-23T03:57:30.424Z,136.80
2019-03-23T03:58:30.466Z,128.10
2019-03-23T03:59:30.376Z,145.00
2019-03-23T04:00:30.377Z,144.40
2019-03-23T04:01:30.319Z,147.20
2019-03-23T04:02:30.393Z,141.30
2019-03-23T04:03:30.269Z,139.00
2019-03-23T04:04:30.305Z,145.20
2019-03-23T04:05:30.210Z,148.10
2019-03-23T04:06:30.228Z,142.80
2019-03-23T04:07:30.162Z,150.00
2019-03-23T04:08:30.230Z,139.10
2019-03-23T04:09:30.109Z,142.20
2019-03-23T04:10:30.150Z,139.20
2019-03-23T04:11:30.046Z,136.90
2019-03-23T04:12:30.064Z,141.70
2019-03-23T04:13:29.993Z,136.70
2019-03-23T04:14:30.986Z,127.30
2019-03-23T04:15:29.942Z,134.50
2019-03-23T04:16:29.983Z,139.20
2019-03-23T04:17:29.885Z,131.90
2019-03-23T04:18:29.889Z,137.10
2019-03-23T04:19:29.833Z,126.50
2019-03-23T04:20:29.916Z,131.70
2019-03-23T04:21:29.780Z,131.60
2019-03-23T04:22:29.848Z,132.00
2019-03-23T04:23:29.729Z,139.40
2019-03-23T04:24:29.729Z,134.30
2019-03-23T04:25:29.712Z,120.20
2019-03-23T04:26:29.914Z,129.80
2019-03-23T04:27:29.652Z,132.20
2019-03-23T04:28:30.651Z,124.40
2019-03-23T04:29:29.583Z,125.40
2019-03-23T04:30:44.308Z,131.10
2019-03-23T04:31:29.514Z,127.10
2019-03-23T04:32:44.313Z,131.70
2019-03-23T04:33:29.477Z,123.40
2019-03-23T04:35:29.426Z,126.40
2019-03-23T04:36:29.466Z,124.90
2019-03-23T04:37:29.360Z,122.80
2019-03-23T04:38:29.364Z,125.80
2019-03-23T04:39:29.299Z,131.60
2019-03-23T04:40:29.289Z,125.90
2019-03-23T04:41:29.243Z,130.70
2019-03-23T04:42:29.308Z,117.50
2019-03-23T04:43:29.196Z,124.60
2019-03-23T04:44:29.204Z,121.10
2019-03-23T04:45:29.135Z,131.50
2019-03-23T04:46:29.120Z,126.20
2019-03-23T04:47:29.095Z,129.50
2019-03-23T04:48:29.138Z,128.00
2019-03-23T04:49:29.031Z,120.10
2019-03-23T04:50:29.048Z,129.50
2019-03-23T04:51:28.969Z,125.00
2019-03-23T04:52:29.078Z,128.00
2019-03-23T04:53:28.912Z,121.90
2019-03-23T04:54:28.989Z,130.90
2019-03-23T04:55:28.861Z,120.10
2019-03-23T04:56:28.898Z,126.00
2019-03-23T04:57:28.833Z,121.60
2019-03-23T04:58:28.896Z,121.00
2019-03-23T04:59:28.749Z,123.60
2019-03-23T05:00:28.808Z,130.80
2019-03-23T05:01:28.702Z,127.30
2019-03-23T05:02:28.718Z,127.80
2019-03-23T05:03:28.663Z,123.20
2019-03-23T05:04:28.736Z,125.50
2019-03-23T05:05:28.594Z,125.40
2019-03-23T05:06:28.655Z,123.10
2019-03-23T05:07:28.536Z,112.00
2019-03-23T05:08:33.382Z,129.90
2019-03-23T05:09:28.498Z,121.90
2019-03-23T05:10:28.589Z,127.20
2019-03-23T05:11:28.519Z,129.10
2019-03-23T05:44:37.934Z,132.60
2019-03-23T05:45:36.261Z,132.00
2019-03-23T05:46:36.236Z,127.80
2019-03-23T05:47:36.209Z,126.50
2019-03-23T05:48:36.178Z,130.50
2019-03-23T05:49:36.158Z,134.10
2019-03-23T05:50:36.123Z,130.80
2019-03-23T05:51:36.104Z,120.00
2019-03-23T05:52:36.074Z,142.30
2019-03-23T05:53:36.039Z,133.30
2019-03-23T05:54:36.015Z,139.40
2019-03-23T05:55:36.016Z,140.30
2019-03-23T05:56:35.961Z,134.60
2019-03-23T05:57:36.003Z,138.80
2019-03-23T05:58:35.912Z,145.60
2019-03-23T05:59:35.896Z,137.20
2019-03-23T06:00:35.853Z,132.80
2019-03-23T06:01:35.836Z,139.90
2019-03-23T06:02:35.816Z,142.50
2019-03-23T06:03:35.777Z,128.50
2019-03-23T06:04:35.787Z,140.00
2019-03-23T06:05:35.724Z,129.80
2019-03-23T06:06:35.704Z,140.30
2019-03-23T06:07:35.687Z,135.50
2019-03-23T06:08:35.631Z,142.00
2019-03-23T06:09:35.610Z,136.40
2019-03-23T06:10:35.642Z,140.30
2019-03-23T06:11:35.546Z,134.20
2019-03-23T06:12:35.619Z,138.40
2019-03-23T06:13:35.500Z,133.50
2019-03-23T06:14:35.558Z,139.50
2019-03-23T06:15:35.452Z,130.60
2019-03-23T06:16:35.486Z,136.50
2019-03-23T06:17:35.399Z,137.80
2019-03-23T06:18:35.380Z,139.00
2019-03-23T06:19:35.331Z,128.70
2019-03-23T06:20:35.395Z,142.40
2019-03-23T06:21:35.283Z,137.70
2019-03-23T06:22:35.305Z,131.10
2019-03-23T06:23:35.223Z,132.40
2019-03-23T06:24:35.322Z,137.10
2019-03-23T06:25:35.177Z,133.30
2019-03-23T06:26:35.228Z,123.80
2019-03-23T06:27:35.121Z,131.10
2019-03-23T06:28:35.131Z,134.40
2019-03-23T06:29:35.074Z,124.60
2019-03-23T06:30:35.137Z,129.30
2019-03-23T06:31:35.011Z,133.20
2019-03-23T06:32:35.048Z,129.60
2019-03-23T06:33:34.957Z,129.90
2019-03-23T06:34:35.005Z,127.30
2019-03-23T06:35:34.900Z,130.10
2019-03-23T06:36:34.973Z,131.50
2019-03-23T06:37:34.867Z,130.60
2019-03-23T06:38:34.884Z,133.00
2019-03-23T06:39:34.788Z,141.10
2019-03-23T06:40:34.905Z,136.80
2019-03-23T06:41:34.737Z,130.90
2019-03-23T06:42:35.832Z,132.90
2019-03-23T06:43:34.687Z,123.00
2019-03-23T06:44:34.727Z,121.50
2019-03-23T06:45:34.641Z,121.20
2019-03-23T07:31:15.988Z,89.80
2019-03-23T07:32:15.734Z,90.30
2019-03-23T07:33:15.695Z,88.10
2019-03-23T07:34:15.667Z,85.90
2019-03-23T07:35:15.795Z,84.50
2019-03-23T07:36:15.614Z,90.00
2019-03-23T07:37:15.588Z,86.10
2019-03-23T07:38:15.723Z,89.10
2019-03-23T07:39:26.524Z,87.20
2019-03-23T07:40:15.529Z,92.10
2019-03-23T07:41:15.637Z,86.40
2019-03-23T07:42:15.451Z,79.50
2019-03-23T07:43:15.495Z,85.60
2019-03-23T07:44:15.405Z,82.80
2019-03-23T07:45:15.398Z,80.40
2019-03-23T07:46:15.385Z,85.40
2019-03-23T07:47:15.319Z,83.00
2019-03-23T07:48:15.301Z,82.10
2019-03-23T07:49:15.266Z,83.30
2019-03-23T07:50:15.247Z,84.40
2019-03-23T07:51:15.229Z,84.50
2019-03-23T07:52:15.186Z,83.80
2019-03-23T07:53:15.166Z,89.40
2019-03-23T07:54:16.274Z,82.80
2019-03-23T07:55:15.118Z,77.70
2019-03-23T07:56:23.917Z,79.00
2019-03-23T07:57:15.053Z,81.20
2019-03-23T07:58:16.159Z,78.50
2019-03-23T07:59:14.996Z,78.10
2019-03-23T08:00:23.844Z,77.20
2019-03-23T08:01:14.990Z,82.30
2019-03-23T08:02:16.995Z,74.90
2019-03-23T08:03:14.927Z,77.50
2019-03-23T08:04:14.994Z,79.60
2019-03-23T08:05:14.826Z,79.30
2019-03-23T08:06:14.885Z,78.50
2019-03-23T08:07:14.772Z,77.10
2019-03-23T08:08:16.788Z,75.70
2019-03-23T08:09:20.299Z,79.60
2019-03-23T08:10:16.834Z,78.10
2019-03-23T08:11:14.657Z,83.40
2019-03-23T08:12:23.368Z,76.70
2019-03-23T08:13:14.659Z,78.30
2019-03-23T08:14:22.477Z,76.10
2019-03-23T08:15:14.549Z,79.00
2019-03-23T08:16:15.673Z,83.70
2019-03-23T08:17:14.527Z,75.00
2019-03-23T08:18:14.581Z,77.40
2019-03-23T08:19:14.466Z,75.20
2019-03-23T08:20:16.512Z,76.90
2019-03-23T08:21:14.400Z,73.10
2019-03-23T08:22:22.362Z,74.90
2019-03-23T08:23:14.333Z,82.90
2019-03-23T08:24:29.474Z,78.80
2019-03-23T08:25:14.290Z,75.30
2019-03-23T08:26:14.419Z,74.90
2019-03-23T08:27:14.219Z,77.40
2019-03-23T08:28:15.362Z,77.90
2019-03-23T08:29:14.199Z,76.40
2019-03-23T08:30:16.271Z,74.70
2019-03-23T08:31:14.124Z,73.20
2019-03-23T08:33:14.069Z,68.30
2019-03-23T08:34:14.155Z,67.70
2019-03-23T08:35:14.153Z,73.70
2019-03-23T08:37:13.962Z,75.20
2019-03-23T08:38:14.086Z,79.60
2019-03-23T08:39:13.906Z,71.50
2019-03-23T08:40:16.062Z,76.70
2019-03-23T08:41:13.848Z,71.10
2019-03-23T08:42:13.902Z,71.70
2019-03-23T08:43:13.811Z,70.80
2019-03-23T08:44:41.472Z,73.20
2019-03-23T08:45:13.732Z,70.70
2019-03-23T08:46:13.823Z,75.10
2019-03-23T08:47:13.687Z,73.80
2019-03-23T08:48:14.773Z,72.30
2019-03-23T08:49:13.632Z,72.40
2019-03-23T08:50:28.576Z,72.80
2019-03-23T08:51:13.577Z,70.00
2019-03-23T08:52:14.715Z,70.30
2019-03-23T08:53:13.517Z,71.10
2019-03-23T08:54:13.583Z,71.90
2019-03-23T08:55:13.472Z,74.70
2019-03-23T08:56:14.519Z,70.70
2019-03-23T08:57:13.403Z,69.70
2019-03-23T08:58:34.373Z,66.60
2019-03-23T08:59:13.372Z,66.80
2019-03-23T09:00:30.409Z,70.70
2019-03-23T09:01:13.302Z,66.90
2019-03-23T09:02:36.355Z,71.40
2019-03-23T09:03:13.294Z,67.80
2019-03-23T09:04:13.225Z,62.90
2019-03-23T09:05:13.388Z,67.40
2019-03-23T09:06:13.160Z,67.50
2019-03-23T09:07:13.338Z,63.90
2019-03-23T09:08:13.092Z,65.50
2019-03-23T09:09:13.215Z,66.50
2019-03-23T09:10:13.079Z,66.00
2019-03-23T09:11:20.436Z,63.80
2019-03-23T09:12:12.998Z,64.60
2019-03-23T09:13:12.984Z,65.70
2019-03-23T09:14:12.943Z,64.40
2019-03-23T09:15:13.088Z,64.90
2019-03-23T09:16:12.930Z,65.10
2019-03-23T09:17:13.001Z,66.40
2019-03-23T09:18:12.837Z,64.40
2019-03-23T09:19:12.882Z,61.80
2019-03-23T09:20:12.773Z,64.40
2019-03-23T09:21:13.028Z,61.70
2019-03-23T09:22:12.740Z,63.50
2019-03-23T09:23:12.672Z,64.00
2019-03-23T09:24:12.639Z,58.90
2019-03-23T09:25:12.700Z,65.60
2019-03-23T09:26:13.739Z,63.70
2019-03-23T09:27:12.771Z,62.60
2019-03-23T09:28:12.649Z,57.40
2019-03-23T09:29:12.607Z,60.10
2019-03-23T09:30:12.549Z,62.30
2019-03-23T09:31:12.617Z,59.80
2019-03-23T09:32:12.634Z,56.20
2019-03-23T09:33:12.409Z,59.70
2019-03-23T09:34:12.648Z,61.50
2019-03-23T09:35:12.357Z,59.10
2019-03-23T09:36:13.408Z,57.50
2019-03-23T09:37:12.311Z,57.60
2019-03-23T09:38:13.403Z,57.40
2019-03-23T09:39:12.242Z,59.70
2019-03-23T09:40:12.290Z,57.70
2019-03-23T09:41:12.181Z,57.50
2019-03-23T09:42:12.202Z,59.00
2019-03-23T09:43:12.170Z,58.40
2019-03-23T09:44:18.965Z,57.90
2019-03-23T09:45:14.130Z,56.20
2019-03-23T09:46:13.278Z,57.00
2019-03-23T09:47:12.032Z,55.70
2019-03-23T09:48:14.211Z,52.60
2019-03-23T09:49:11.976Z,59.90
2019-03-23T09:50:12.139Z,54.90
2019-03-23T09:51:11.928Z,56.40
2019-03-23T09:52:14.106Z,54.90
2019-03-23T09:53:11.862Z,54.30
2019-03-23T09:54:12.010Z,56.90
2019-03-23T09:55:11.811Z,58.20
2019-03-23T09:56:11.970Z,56.70
2019-03-23T09:57:11.764Z,55.60
2019-03-23T09:58:11.886Z,58.90
2019-03-23T09:59:11.694Z,57.70
2019-03-23T10:00:26.479Z,55.40
2019-03-23T10:01:11.671Z,53.50
2019-03-23T10:02:28.516Z,56.00
2019-03-23T10:03:11.599Z,55.70
2019-03-23T10:04:11.623Z,52.40
2019-03-23T10:05:11.563Z,52.70
2019-03-23T10:06:11.541Z,57.20
2019-03-23T10:07:11.467Z,53.80
2019-03-23T10:08:19.413Z,56.00
2019-03-23T10:09:11.414Z,57.50
2019-03-23T10:10:21.386Z,54.60
2019-03-23T10:11:11.363Z,58.40
2019-03-23T10:12:20.357Z,53.50
2019-03-23T10:13:11.316Z,56.90
2019-03-23T10:14:11.357Z,52.20
2019-03-23T10:15:11.240Z,50.10
2019-03-23T10:16:13.340Z,55.20
2019-03-23T10:17:11.356Z,53.70
2019-03-23T10:18:13.277Z,53.00
2019-03-23T10:19:11.140Z,57.90
2019-03-23T10:20:19.920Z,54.20
2019-03-23T10:21:11.110Z,52.80
2019-03-23T10:22:12.183Z,52.00
2019-03-23T10:23:11.025Z,54.40
2019-03-23T10:24:32.010Z,48.90
2019-03-23T10:25:10.986Z,52.80
2019-03-23T10:26:12.994Z,52.90
2019-03-23T10:27:10.920Z,51.60
2019-03-23T10:28:19.864Z,52.30
2019-03-23T10:29:10.851Z,52.70
2019-03-23T10:30:10.950Z,51.30
2019-03-23T10:31:10.821Z,52.20
2019-03-23T10:32:10.876Z,51.90
2019-03-23T10:33:10.783Z,52.40
2019-03-23T10:34:10.838Z,51.60
2019-03-23T10:35:10.712Z,52.60
2019-03-23T10:36:12.262Z,50.40
2019-03-23T10:37:10.638Z,49.30
2019-03-23T10:38:10.709Z,45.30
2019-03-23T10:39:10.584Z,50.80
2019-03-23T10:40:34.427Z,49.90
2019-03-23T10:41:10.539Z,53.30
2019-03-23T10:42:31.603Z,53.70
2019-03-23T10:43:10.555Z,52.60
2019-03-23T10:44:12.588Z,49.20
2019-03-23T10:45:10.437Z,51.70
2019-03-23T10:46:19.546Z,50.90
2019-03-23T10:47:10.393Z,49.90
2019-03-23T10:48:12.166Z,55.10
2019-03-23T10:49:10.326Z,53.50
2019-03-23T10:50:10.433Z,46.40
2019-03-23T10:51:10.253Z,50.80
2019-03-23T10:52:10.393Z,47.70
2019-03-23T10:53:10.223Z,49.30
2019-03-23T10:54:10.237Z,49.20
2019-03-23T10:55:10.163Z,48.80
2019-03-23T10:56:10.245Z,48.90
2019-03-23T10:57:10.106Z,48.60
2019-03-23T10:58:10.171Z,50.90
2019-03-23T10:59:10.059Z,52.00
2019-03-23T11:00:10.186Z,48.20
2019-03-23T11:01:09.983Z,50.40
2019-03-23T11:02:10.105Z,48.20
2019-03-23T11:03:09.936Z,48.30
2019-03-23T11:04:09.998Z,50.10
2019-03-23T11:05:09.882Z,50.10
2019-03-23T11:06:09.918Z,47.70
2019-03-23T11:07:09.835Z,49.00
2019-03-23T11:08:09.923Z,50.40
2019-03-23T11:09:09.794Z,56.20
2019-03-23T11:10:09.837Z,52.30
2019-03-23T11:11:09.716Z,55.60
2019-03-23T11:12:09.747Z,53.30
2019-03-23T11:13:09.655Z,54.40
2019-03-23T11:14:09.760Z,51.60
2019-03-23T11:15:09.595Z,51.50
2019-03-23T11:16:09.697Z,49.30
2019-03-23T11:17:09.564Z,49.10
2019-03-23T11:18:09.593Z,45.20
2019-03-23T11:19:13.344Z,43.80
2019-03-23T11:20:09.601Z,45.10
2019-03-23T11:21:09.441Z,43.60
2019-03-23T11:22:09.525Z,46.20
2019-03-23T11:23:09.376Z,45.70
2019-03-23T11:24:09.521Z,48.90
2019-03-23T11:25:09.330Z,51.20
2019-03-23T11:26:09.430Z,51.60
2019-03-23T11:27:09.278Z,45.10
2019-03-23T11:28:09.343Z,47.60
2019-03-23T11:29:09.226Z,45.70
2019-03-23T11:30:09.364Z,48.20
2019-03-23T11:31:09.157Z,48.80
2019-03-23T11:32:09.277Z,50.70
2019-03-23T11:33:09.115Z,46.50
2019-03-23T11:34:17.536Z,48.90
2019-03-23T11:35:09.129Z,43.80
2019-03-23T11:36:09.208Z,50.50
2019-03-23T11:37:09.076Z,49.40
2019-03-23T11:38:09.120Z,47.50
2019-03-23T11:39:08.938Z,45.70
2019-03-23T11:40:09.015Z,51.00
2019-03-23T11:41:08.920Z,45.60
2019-03-23T11:42:09.043Z,46.90
2019-03-23T11:43:08.843Z,53.20
2019-03-23T11:44:08.948Z,49.70
2019-03-23T11:45:08.783Z,45.40
2019-03-23T11:46:08.857Z,48.30
2019-03-23T11:47:08.728Z,50.60
2019-03-23T11:48:08.863Z,48.40
2019-03-23T11:49:08.663Z,47.70
2019-03-23T11:50:08.774Z,44.10
2019-03-23T11:51:08.604Z,45.60
2019-03-23T11:52:16.467Z,47.60
2019-03-23T11:53:08.552Z,46.30
2019-03-23T11:54:10.736Z,45.50
2019-03-23T11:55:08.505Z,48.80
2019-03-23T11:56:15.519Z,55.80
2019-03-23T11:57:08.447Z,45.20
2019-03-23T11:59:08.399Z,47.50
2019-03-23T12:00:10.497Z,46.00
2019-03-23T12:01:08.350Z,45.90
2019-03-23T12:02:09.478Z,45.10
2019-03-23T12:03:08.289Z,43.50
2019-03-23T12:04:10.403Z,41.00
2019-03-23T12:05:08.236Z,42.00
2019-03-23T12:06:09.301Z,39.30
2019-03-23T12:07:08.179Z,43.40
2019-03-23T12:08:17.001Z,42.40
2019-03-23T12:09:08.132Z,45.20
2019-03-23T12:10:22.947Z,43.60
2019-03-23T12:11:08.088Z,43.90
2019-03-23T12:12:08.211Z,42.20
2019-03-23T12:13:08.015Z,43.00
2019-03-23T12:14:09.157Z,44.90
2019-03-23T12:15:07.959Z,45.10
2019-03-23T12:16:07.944Z,42.00
2019-03-23T12:17:07.901Z,41.80
2019-03-23T12:18:08.905Z,41.00
2019-03-23T12:19:07.861Z,44.90
2019-03-23T12:20:07.887Z,42.60
2019-03-23T12:21:07.804Z,43.30
2019-03-23T12:22:23.552Z,46.20
2019-03-23T12:23:07.754Z,45.30
2019-03-23T12:24:24.474Z,45.00
2019-03-23T12:25:07.685Z,43.00
2019-03-23T12:26:15.483Z,42.10
2019-03-23T12:27:07.643Z,39.20
2019-03-23T12:29:07.585Z,41.30
2019-03-23T12:30:07.807Z,43.50
2019-03-23T12:31:16.536Z,40.90
2019-03-23T12:32:07.498Z,39.30
2019-03-23T12:33:14.506Z,36.90
2019-03-23T12:34:07.435Z,37.40
2019-03-23T12:35:14.421Z,37.00
2019-03-23T12:36:07.381Z,34.70
2019-03-23T12:37:31.518Z,35.30
2019-03-23T12:38:07.338Z,35.90
2019-03-23T12:39:07.316Z,36.40
2019-03-23T12:40:28.269Z,39.50
2019-03-23T12:41:18.591Z,39.20
2019-03-23T12:42:09.336Z,40.70
2019-03-23T12:43:07.193Z,40.60
2019-03-23T12:44:22.059Z,43.50
2019-03-23T12:45:07.154Z,39.30
2019-03-23T12:46:08.139Z,41.90
2019-03-23T12:47:07.093Z,41.00
2019-03-23T12:48:13.892Z,42.50
2019-03-23T12:49:07.036Z,38.70
2019-03-23T12:50:09.097Z,39.30
2019-03-23T12:51:06.976Z,40.50
2019-03-23T12:52:06.961Z,39.00
2019-03-23T12:53:06.922Z,37.40
2019-03-23T12:54:06.888Z,39.30
2019-03-23T12:55:06.860Z,42.10
2019-03-23T12:56:23.441Z,42.00
2019-03-23T12:57:06.806Z,41.90
2019-03-23T12:58:06.833Z,44.80
2019-03-23T12:59:06.766Z,41.70
2019-03-23T13:00:06.860Z,43.40
2019-03-23T13:01:06.707Z,40.90
2019-03-23T13:02:07.800Z,40.20
2019-03-23T13:03:06.650Z,40.30
2019-03-23T13:04:06.695Z,43.30
2019-03-23T13:05:06.588Z,43.00
2019-03-23T13:06:06.641Z,44.70
2019-03-23T13:07:06.530Z,43.30
2019-03-23T13:08:06.559Z,42.30
2019-03-23T13:09:06.491Z,42.50
2019-03-23T13:10:06.566Z,43.60
2019-03-23T13:11:06.441Z,42.90
2019-03-23T13:12:06.489Z,42.80
2019-03-23T13:13:06.362Z,41.70
2019-03-23T13:14:06.387Z,40.50
2019-03-23T13:15:06.334Z,44.10
2019-03-23T13:16:06.414Z,42.50
2019-03-23T13:17:06.254Z,42.40
2019-03-23T13:18:06.318Z,38.70
2019-03-23T13:19:06.208Z,43.70
2019-03-23T13:20:08.680Z,44.10
2019-03-23T13:21:06.177Z,46.20
2019-03-23T13:22:06.240Z,44.20
2019-03-23T13:23:06.094Z,42.10
2019-03-23T13:24:06.159Z,42.50
2019-03-23T13:25:06.037Z,41.60
2019-03-23T13:26:06.072Z,45.50
2019-03-23T13:27:06.001Z,46.50
2019-03-23T13:28:05.978Z,46.00
2019-03-23T13:29:05.927Z,45.30
2019-03-23T13:30:05.988Z,47.30
2019-03-23T13:31:05.874Z,44.70
2019-03-23T13:32:05.900Z,46.10
2019-03-23T13:33:05.829Z,42.90
2019-03-23T13:34:05.913Z,46.90
2019-03-23T13:35:05.779Z,44.30
2019-03-23T13:36:05.824Z,42.60
2019-03-23T13:37:05.718Z,44.10
2019-03-23T13:38:05.735Z,43.60
2019-03-23T13:39:05.668Z,43.30
2019-03-23T13:40:05.661Z,46.20
2019-03-23T13:41:05.605Z,44.10
2019-03-23T13:42:05.655Z,44.20
2019-03-23T13:43:05.602Z,48.20
2019-03-23T13:44:05.576Z,45.80
2019-03-23T13:45:05.498Z,46.40
2019-03-23T13:46:05.585Z,47.30
2019-03-23T13:47:05.443Z,45.80
2019-03-23T13:48:05.528Z,47.40
2019-03-23T13:49:05.389Z,43.60
2019-03-23T13:50:05.439Z,47.00
2019-03-23T13:51:05.338Z,44.40
2019-03-23T13:52:05.325Z,47.20
2019-03-23T13:53:05.275Z,46.30
2019-03-23T13:54:05.403Z,44.80
2019-03-23T13:55:05.265Z,45.80
2019-03-23T13:56:05.332Z,48.00
2019-03-23T13:57:05.164Z,45.90
2019-03-23T13:58:05.162Z,50.20
2019-03-23T13:59:05.111Z,47.90
2019-03-23T14:00:05.175Z,48.80
2019-03-23T14:01:05.080Z,47.70
2019-03-23T14:02:05.125Z,51.20
2019-03-23T14:03:05.002Z,49.10
2019-03-23T14:04:05.091Z,51.30
2019-03-23T14:05:04.960Z,48.80
2019-03-23T14:06:04.942Z,52.40
2019-03-23T14:07:04.892Z,48.80
2019-03-23T14:08:04.925Z,49.00
2019-03-23T14:09:04.921Z,48.20
2019-03-23T14:10:04.839Z,50.50
2019-03-23T14:11:04.783Z,50.80
2019-03-23T14:12:04.852Z,52.30
2019-03-23T14:13:04.732Z,49.40
2019-03-23T14:14:04.771Z,49.80
2019-03-23T14:15:04.683Z,48.40
2019-03-23T14:16:04.672Z,50.30
2019-03-23T14:17:04.629Z,48.70
2019-03-23T14:18:04.707Z,51.30
2019-03-23T14:19:04.591Z,48.80
2019-03-23T14:20:04.595Z,47.40
2019-03-23T14:21:04.520Z,46.70
2019-03-23T14:22:04.506Z,49.50
2019-03-23T14:23:04.466Z,52.20
2019-03-23T14:24:04.560Z,51.90
2019-03-23T14:25:04.420Z,45.40
2019-03-23T14:26:04.478Z,47.20
2019-03-23T14:27:04.359Z,47.80
2019-03-23T14:28:04.321Z,45.60
2019-03-23T14:29:04.303Z,50.00
2019-03-23T14:30:06.307Z,47.80
2019-03-23T14:31:04.244Z,48.80
2019-03-23T14:32:04.266Z,47.90
2019-03-23T14:33:04.180Z,48.40
2019-03-23T14:34:06.250Z,48.50
2019-03-23T14:35:04.144Z,47.70
2019-03-23T14:36:05.213Z,50.00
2019-03-23T14:37:04.089Z,48.60
2019-03-23T14:38:04.191Z,49.90
2019-03-23T14:39:04.059Z,47.60
2019-03-23T14:40:18.993Z,51.40
2019-03-23T14:41:04.024Z,49.90
2019-03-23T14:42:05.167Z,46.10
2019-03-23T14:43:03.921Z,49.30
2019-03-23T14:44:03.939Z,48.00
2019-03-23T14:45:03.863Z,46.90
2019-03-23T14:46:03.977Z,49.10
2019-03-23T14:47:03.810Z,48.30
2019-03-23T14:48:04.879Z,51.80
2019-03-23T14:49:03.771Z,46.80
2019-03-23T14:50:10.500Z,49.70
2019-03-23T14:51:03.709Z,46.10
2019-03-23T14:53:03.660Z,50.30
2019-03-23T14:54:10.455Z,49.50
2019-03-23T14:55:03.584Z,48.80
2019-03-23T14:56:03.650Z,52.90
2019-03-23T14:57:03.567Z,47.80
2019-03-23T14:58:04.576Z,50.70
2019-03-23T14:59:03.481Z,50.50
2019-03-23T15:00:03.643Z,52.80
2019-03-23T15:01:03.434Z,48.30
2019-03-23T15:02:10.442Z,51.30
2019-03-23T15:03:03.385Z,50.40
2019-03-23T15:04:04.423Z,47.80
2019-03-23T15:05:03.319Z,50.90
2019-03-23T15:06:10.994Z,49.60
2019-03-23T15:07:03.277Z,47.60
2019-03-23T15:09:03.214Z,49.10
2019-03-23T15:10:04.292Z,53.00
2019-03-23T15:11:03.177Z,47.30
2019-03-23T15:12:19.030Z,50.10
2019-03-23T15:13:03.112Z,49.30
2019-03-23T15:14:11.036Z,50.40
2019-03-23T15:15:03.046Z,50.50
2019-03-23T15:16:05.154Z,54.50
2019-03-23T15:17:02.993Z,52.80
2019-03-23T15:18:10.978Z,50.20
2019-03-23T15:19:02.934Z,49.60
2019-03-23T15:20:09.959Z,47.10
2019-03-23T15:21:02.894Z,51.90
2019-03-23T15:22:02.904Z,47.30
2019-03-23T15:23:02.883Z,46.70
2019-03-23T15:24:02.831Z,44.50
2019-03-23T15:25:02.885Z,43.80